Time;durP1;ratioP1;P1;durP2;ratioP2;P2;SDS_P1;SDS_P2;PMS_P1;PMS_P2;Temp;Humidity;BMP_temperature;BMP_pressure;BME280_temperature;BME280_humidity;BME280_pressure;Samples;Min_cycle;Max_cycle;Signal;HPM_P1;HPM_P2
2020/12/09 00:00:57;;;;;;;55.03;25.40;;;1.40;59.00;;;;;;5009499;28;20133;-70
2020/12/09 00:03:24;;;;;;;53.63;24.25;;;1.40;59.10;;;;;;5010270;28;20045;-69
2020/12/09 00:05:52;;;;;;;55.38;26.60;;;1.30;59.30;;;;;;5012876;28;20045;-70
2020/12/09 00:08:20;;;;;;;56.33;27.17;;;1.30;61.20;;;;;;4991465;28;20050;-70
2020/12/09 00:10:48;;;;;;;56.78;27.10;;;1.30;61.80;;;;;;5006209;28;20049;-69
2020/12/09 00:13:16;;;;;;;51.65;26.08;;;1.20;62.20;;;;;;5008589;28;20138;-70
2020/12/09 00:15:44;;;;;;;54.38;26.98;;;1.20;63.40;;;;;;5010434;28;20149;-70
2020/12/09 00:18:12;;;;;;;58.50;25.40;;;1.20;63.80;;;;;;5006998;28;20566;-69
2020/12/09 00:20:39;;;;;;;55.90;26.75;;;1.20;65.60;;;;;;5006026;28;20046;-70
2020/12/09 00:23:06;;;;;;;61.65;27.52;;;1.20;66.20;;;;;;5011799;28;20426;-70
2020/12/09 00:25:33;;;;;;;64.38;27.73;;;1.20;66.40;;;;;;5009458;28;20088;-70
2020/12/09 00:28:00;;;;;;;62.45;28.45;;;1.20;66.00;;;;;;5013826;28;20041;-69
2020/12/09 00:30:27;;;;;;;58.08;25.65;;;1.20;66.50;;;;;;5013538;28;20398;-69
2020/12/09 00:32:54;;;;;;;56.80;26.02;;;1.20;67.00;;;;;;5013706;28;20054;-69
2020/12/09 00:35:22;;;;;;;59.80;27.65;;;1.10;67.30;;;;;;5014322;28;20062;-69
2020/12/09 00:37:48;;;;;;;60.58;27.02;;;1.20;68.00;;;;;;5014756;28;20059;-69
2020/12/09 00:40:16;;;;;;;59.88;26.67;;;1.20;68.00;;;;;;5011239;28;20088;-69
2020/12/09 00:42:42;;;;;;;59.63;27.20;;;1.10;68.50;;;;;;5013258;28;20072;-69
2020/12/09 00:45:09;;;;;;;55.33;26.70;;;1.10;68.50;;;;;;5012701;28;20054;-69
2020/12/09 00:47:40;;;;;;;53.65;25.67;;;1.10;69.10;;;;;;5012609;28;20245;-70
2020/12/09 00:52:52;;;;;;;;;;;1.20;70.00;;;;;;5015382;28;20052;-71
2020/12/09 00:55:20;;;;;;;63.47;29.42;;;1.30;70.60;;;;;;5016515;28;20338;-70
2020/12/09 00:57:46;;;;;;;62.13;29.23;;;1.20;69.30;;;;;;5013894;28;20054;-70
2020/12/09 01:00:14;;;;;;;64.85;28.05;;;1.10;69.90;;;;;;5013998;28;20064;-69
2020/12/09 01:02:41;;;;;;;59.72;28.45;;;1.30;71.00;;;;;;5014225;28;20056;-69
2020/12/09 01:05:09;;;;;;;57.85;28.20;;;1.30;70.40;;;;;;5018374;28;20061;-70
2020/12/09 01:07:36;;;;;;;64.93;28.50;;;1.30;70.00;;;;;;5013926;28;20065;-70
2020/12/09 01:10:06;;;;;;;58.47;26.63;;;1.30;70.20;;;;;;5012849;28;20050;-72
2020/12/09 01:12:33;;;;;;;55.00;27.08;;;1.30;70.20;;;;;;5013395;28;20052;-69
2020/12/09 01:15:00;;;;;;;60.05;27.33;;;1.40;70.40;;;;;;5014188;28;20411;-71
2020/12/09 01:17:27;;;;;;;59.72;26.60;;;1.50;70.60;;;;;;5020712;28;20045;-69
2020/12/09 01:20:01;;;;;;;63.15;28.88;;;1.50;70.20;;;;;;5013192;28;20044;-70
2020/12/09 01:22:32;;;;;;;63.45;28.20;;;1.40;69.80;;;;;;5015071;28;20054;-70
2020/12/09 01:24:59;;;;;;;58.35;27.25;;;1.40;69.90;;;;;;5012921;28;20516;-69
2020/12/09 01:27:26;;;;;;;55.58;26.33;;;1.50;69.60;;;;;;5018618;28;20500;-70
2020/12/09 01:29:53;;;;;;;55.00;26.42;;;1.50;69.30;;;;;;5010487;28;20041;-69
2020/12/09 01:32:21;;;;;;;61.13;27.95;;;1.50;68.10;;;;;;5025418;28;20049;-69
2020/12/09 01:34:50;;;;;;;59.05;29.33;;;1.50;68.00;;;;;;5014014;28;20100;-69
2020/12/09 01:37:18;;;;;;;58.65;26.25;;;1.50;67.80;;;;;;5018156;28;20049;-69
2020/12/09 01:39:45;;;;;;;59.15;26.77;;;1.50;67.20;;;;;;5018170;28;20052;-73
2020/12/09 01:42:12;;;;;;;53.78;26.00;;;1.50;66.00;;;;;;5016326;28;20064;-69
2020/12/09 01:44:40;;;;;;;60.88;27.35;;;1.50;67.10;;;;;;5014943;28;20049;-70
2020/12/09 01:47:07;;;;;;;57.47;27.65;;;1.50;66.70;;;;;;5015863;28;20045;-68
2020/12/09 01:49:35;;;;;;;52.42;25.45;;;1.40;66.20;;;;;;5009865;28;20479;-69
2020/12/09 01:52:03;;;;;;;58.83;26.83;;;1.40;67.10;;;;;;5009154;28;20057;-69
2020/12/09 01:54:30;;;;;;;59.95;25.98;;;1.60;67.20;;;;;;5013269;28;20508;-73
2020/12/09 01:57:05;;;;;;;58.03;26.73;;;1.50;66.90;;;;;;5012803;28;20048;-69
2020/12/09 01:59:32;;;;;;;57.83;27.98;;;1.50;67.20;;;;;;5007692;28;20060;-69
2020/12/09 02:02:01;;;;;;;58.00;27.92;;;1.60;67.80;;;;;;5010016;28;20499;-70
2020/12/09 02:04:28;;;;;;;56.97;26.80;;;1.50;67.20;;;;;;5009517;28;20054;-70
2020/12/09 02:06:55;;;;;;;51.47;26.48;;;1.50;66.80;;;;;;5013883;28;20049;-69
2020/12/09 02:09:23;;;;;;;51.80;26.77;;;1.60;67.30;;;;;;5007271;28;20705;-69
2020/12/09 02:11:50;;;;;;;54.67;26.45;;;1.50;66.40;;;;;;5011551;28;20046;-72
2020/12/09 02:14:19;;;;;;;54.90;25.95;;;1.60;67.30;;;;;;5014821;28;20615;-68
2020/12/09 02:16:48;;;;;;;58.15;27.63;;;1.60;66.70;;;;;;5012747;28;20096;-68
2020/12/09 02:19:17;;;;;;;59.25;28.02;;;1.70;66.90;;;;;;5010233;28;20445;-73
2020/12/09 02:21:44;;;;;;;56.40;26.67;;;1.60;66.10;;;;;;5012027;28;20069;-69
2020/12/09 02:24:12;;;;;;;57.90;27.75;;;1.60;67.30;;;;;;5012111;28;20509;-71
2020/12/09 02:26:43;;;;;;;62.42;28.73;;;1.60;67.30;;;;;;5014471;28;20049;-70
2020/12/09 02:29:10;;;;;;;65.22;28.27;;;1.60;67.30;;;;;;5009623;28;20048;-71
2020/12/09 02:31:38;;;;;;;61.33;28.60;;;1.60;67.40;;;;;;5010982;28;20117;-71
2020/12/09 02:34:05;;;;;;;52.92;26.52;;;1.60;67.30;;;;;;5013424;28;20521;-72
2020/12/09 02:36:32;;;;;;;56.00;27.90;;;1.60;66.40;;;;;;5011774;28;20045;-70
2020/12/09 02:39:01;;;;;;;58.42;27.90;;;1.70;68.20;;;;;;5009886;28;20056;-67
2020/12/09 02:41:28;;;;;;;58.00;27.30;;;1.70;67.40;;;;;;5010216;28;20049;-70
2020/12/09 02:43:55;;;;;;;61.28;29.15;;;1.80;67.50;;;;;;5011064;28;20064;-70
2020/12/09 02:46:22;;;;;;;58.05;28.08;;;1.80;67.50;;;;;;5014316;28;20050;-68
2020/12/09 02:48:49;;;;;;;62.53;29.60;;;1.80;67.40;;;;;;5007977;28;20046;-71
2020/12/09 02:51:17;;;;;;;52.30;26.70;;;1.90;67.00;;;;;;5008704;28;20058;-71
2020/12/09 02:53:43;;;;;;;53.72;27.38;;;1.80;64.30;;;;;;5012610;28;20056;-70
2020/12/09 02:56:11;;;;;;;51.17;25.35;;;1.80;61.20;;;;;;5010902;28;20052;-71
2020/12/09 02:58:38;;;;;;;58.33;26.65;;;1.80;62.70;;;;;;5010018;28;20061;-69
2020/12/09 03:01:05;;;;;;;53.67;26.42;;;1.80;63.40;;;;;;5009139;28;20830;-69
2020/12/09 03:03:32;;;;;;;51.05;27.02;;;1.80;63.30;;;;;;5013946;28;20423;-69
2020/12/09 03:05:58;;;;;;;56.35;27.33;;;1.80;63.50;;;;;;5010676;28;20537;-73
2020/12/09 03:08:25;;;;;;;52.38;25.65;;;1.90;63.90;;;;;;5011698;28;20423;-74
2020/12/09 03:10:52;;;;;;;56.20;26.95;;;1.90;63.40;;;;;;5012792;28;20068;-69
2020/12/09 03:13:20;;;;;;;56.13;27.60;;;1.90;63.60;;;;;;5011918;28;20468;-69
2020/12/09 03:15:47;;;;;;;51.92;26.08;;;1.90;62.90;;;;;;5011926;28;20064;-71
2020/12/09 03:18:14;;;;;;;53.22;26.00;;;1.90;63.80;;;;;;5013038;28;20507;-70
2020/12/09 03:20:45;;;;;;;55.90;27.35;;;1.80;62.60;;;;;;5007406;28;20511;-71
2020/12/09 03:23:12;;;;;;;58.45;27.08;;;1.80;64.20;;;;;;5012347;28;20068;-71
2020/12/09 03:25:39;;;;;;;61.00;28.58;;;1.80;63.40;;;;;;5008954;28;20052;-71
2020/12/09 03:28:05;;;;;;;57.80;26.30;;;1.90;65.50;;;;;;5010998;28;20045;-71
2020/12/09 03:30:33;;;;;;;59.75;27.50;;;1.80;65.10;;;;;;5006347;28;20061;-71
2020/12/09 03:33:00;;;;;;;56.58;27.50;;;1.80;65.70;;;;;;5012742;28;20066;-69
2020/12/09 03:35:27;;;;;;;57.05;28.17;;;1.90;67.30;;;;;;5009988;28;20405;-70
2020/12/09 03:37:54;;;;;;;61.50;28.95;;;1.90;67.00;;;;;;5009771;28;20723;-70
2020/12/09 03:40:21;;;;;;;68.32;29.60;;;1.80;67.50;;;;;;5008022;28;20053;-71
2020/12/09 03:42:48;;;;;;;65.18;28.67;;;1.80;67.50;;;;;;5011373;28;20454;-70
2020/12/09 03:45:15;;;;;;;62.97;28.35;;;1.80;67.50;;;;;;5013188;28;20045;-70
2020/12/09 03:47:43;;;;;;;64.20;28.25;;;1.80;67.50;;;;;;5009131;28;20128;-70
2020/12/09 03:50:10;;;;;;;60.10;29.77;;;1.80;68.50;;;;;;5007498;28;20488;-71
2020/12/09 03:52:37;;;;;;;62.75;29.02;;;1.80;68.10;;;;;;5009276;28;20050;-70
2020/12/09 03:55:04;;;;;;;66.95;30.55;;;1.80;69.50;;;;;;5011342;28;20496;-70
2020/12/09 03:57:30;;;;;;;64.70;28.17;;;1.80;68.50;;;;;;5011280;28;20049;-69
2020/12/09 03:59:57;;;;;;;66.60;29.13;;;1.70;69.30;;;;;;5006475;28;20038;-70
2020/12/09 04:02:24;;;;;;;57.95;28.77;;;1.70;70.10;;;;;;5005779;28;20042;-71
2020/12/09 04:04:52;;;;;;;60.70;28.98;;;1.70;70.80;;;;;;5009462;28;20053;-69
2020/12/09 04:07:19;;;;;;;67.78;31.05;;;1.70;71.40;;;;;;5012072;28;20898;-69
2020/12/09 04:09:45;;;;;;;79.03;30.83;;;1.70;71.40;;;;;;5008808;28;20045;-69
2020/12/09 04:12:12;;;;;;;66.65;31.75;;;1.60;71.30;;;;;;5011404;28;20046;-70
2020/12/09 04:14:39;;;;;;;70.40;32.00;;;1.60;71.30;;;;;;5009347;28;20061;-71
2020/12/09 04:17:06;;;;;;;79.25;33.65;;;1.60;71.50;;;;;;5010007;28;20054;-69
2020/12/09 04:19:33;;;;;;;72.90;32.20;;;1.60;71.90;;;;;;5007409;28;20689;-69
2020/12/09 04:22:01;;;;;;;61.78;29.60;;;1.60;71.50;;;;;;5006809;28;20074;-69
2020/12/09 04:24:28;;;;;;;67.25;29.67;;;1.60;71.80;;;;;;5009456;28;20045;-70
2020/12/09 04:26:55;;;;;;;73.85;31.90;;;1.60;72.40;;;;;;5011593;28;20056;-69
2020/12/09 04:29:23;;;;;;;65.70;31.23;;;1.60;72.90;;;;;;5004093;28;20056;-68
2020/12/09 04:31:49;;;;;;;60.10;27.75;;;1.60;72.90;;;;;;5009549;28;20046;-70
2020/12/09 04:34:19;;;;;;;64.53;30.05;;;1.60;72.80;;;;;;5011623;28;20069;-70
2020/12/09 04:36:46;;;;;;;67.65;31.40;;;1.60;73.00;;;;;;5011559;28;20111;-70
2020/12/09 04:39:14;;;;;;;67.25;31.38;;;1.60;73.20;;;;;;5005467;28;20496;-70
2020/12/09 04:41:44;;;;;;;68.75;30.52;;;1.50;73.10;;;;;;5010323;28;20056;-69
2020/12/09 04:44:11;;;;;;;69.80;31.23;;;1.50;73.50;;;;;;5010088;28;20041;-69
2020/12/09 04:46:43;;;;;;;69.03;31.65;;;1.50;73.30;;;;;;5009962;28;20049;-70
2020/12/09 04:49:14;;;;;;;66.25;30.58;;;1.60;74.10;;;;;;5010852;28;20045;-68
2020/12/09 04:52:14;;;;;;;68.85;31.35;;;1.50;73.60;;;;;;5013886;28;20058;-69
2020/12/09 04:54:43;;;;;;;77.10;35.03;;;1.50;73.90;;;;;;5021499;28;20049;-69
2020/12/09 04:57:21;;;;;;;68.78;32.05;;;1.60;74.30;;;;;;5009932;28;20050;-69
2020/12/09 04:59:59;;;;;;;76.63;33.35;;;1.60;74.10;;;;;;5002986;28;20057;-68
2020/12/09 05:02:37;;;;;;;73.78;33.70;;;1.60;74.20;;;;;;5012985;28;20540;-68
2020/12/09 05:05:04;;;;;;;69.07;31.00;;;1.60;74.40;;;;;;5011138;28;20132;-68
2020/12/09 05:07:36;;;;;;;71.50;33.30;;;1.60;74.10;;;;;;5008449;28;20451;-69
2020/12/09 05:10:08;;;;;;;75.25;33.08;;;1.70;74.50;;;;;;5008780;28;20123;-69
2020/12/09 05:12:42;;;;;;;70.55;32.92;;;1.60;73.70;;;;;;5019324;28;20071;-69
2020/12/09 05:15:16;;;;;;;70.00;32.30;;;1.70;74.30;;;;;;5013663;28;20052;-70
2020/12/09 05:18:06;;;;;;;80.82;34.22;;;1.70;74.00;;;;;;5017096;28;20068;-69
2020/12/09 05:20:35;;;;;;;70.40;31.92;;;1.70;74.00;;;;;;5009730;28;20692;-69
2020/12/09 05:23:03;;;;;;;68.18;31.52;;;1.60;73.50;;;;;;5017415;28;20575;-68
2020/12/09 05:25:33;;;;;;;71.97;32.38;;;1.60;74.30;;;;;;5017420;28;20057;-70
2020/12/09 05:28:00;;;;;;;73.75;32.97;;;1.50;74.30;;;;;;5015164;28;20042;-69
2020/12/09 05:30:45;;;;;;;77.65;34.50;;;1.60;74.80;;;;;;5012054;28;20106;-71
2020/12/09 05:33:13;;;;;;;67.25;30.95;;;1.60;74.30;;;;;;5016880;28;20052;-70
2020/12/09 05:35:41;;;;;;;70.10;31.20;;;1.60;74.60;;;;;;5018435;28;20058;-69
2020/12/09 05:38:10;;;;;;;74.90;34.17;;;1.60;74.40;;;;;;5014189;28;20418;-73
2020/12/09 05:40:42;;;;;;;66.93;31.30;;;1.70;74.80;;;;;;5013491;28;20049;-69
2020/12/09 05:43:09;;;;;;;65.10;30.48;;;1.60;74.10;;;;;;5020041;28;20052;-69
2020/12/09 05:45:36;;;;;;;65.85;30.25;;;1.60;74.30;;;;;;5014290;28;20049;-69
2020/12/09 05:48:18;;;;;;;68.70;30.40;;;1.60;74.60;;;;;;5015852;28;20423;-68
2020/12/09 05:50:47;;;;;;;71.80;32.08;;;1.60;74.40;;;;;;5010034;28;20142;-69
2020/12/09 05:53:16;;;;;;;66.10;30.33;;;1.50;74.30;;;;;;5015321;28;20053;-69
2020/12/09 05:55:45;;;;;;;67.47;32.00;;;1.60;75.00;;;;;;5017828;28;20058;-67
2020/12/09 05:58:20;;;;;;;71.40;32.20;;;1.60;74.60;;;;;;5016689;28;20052;-68
2020/12/09 06:01:01;;;;;;;;;;;1.50;74.20;;;;;;5007176;28;20049;-69
2020/12/09 06:03:28;;;;;;;78.60;33.53;;;1.60;74.80;;;;;;5015620;28;19921;-74
2020/12/09 06:06:11;;;;;;;75.53;34.20;;;1.60;74.70;;;;;;5014017;28;20519;-70
2020/12/09 06:08:40;;;;;;;70.95;31.42;;;1.60;74.60;;;;;;5012589;28;20046;-70
2020/12/09 06:11:08;;;;;;;74.05;32.78;;;1.60;75.00;;;;;;5007703;28;20041;-70
2020/12/09 06:13:36;;;;;;;70.32;32.45;;;1.60;74.80;;;;;;5013964;28;20060;-68
2020/12/09 06:16:04;;;;;;;71.43;31.10;;;1.60;74.70;;;;;;5017075;28;20495;-69
2020/12/09 06:18:33;;;;;;;66.15;32.00;;;1.60;74.90;;;;;;5019496;28;20056;-69
2020/12/09 06:21:01;;;;;;;75.55;34.47;;;1.60;75.00;;;;;;5010856;28;20472;-69
2020/12/09 06:23:29;;;;;;;64.82;30.38;;;1.60;75.10;;;;;;5011700;28;20052;-69
2020/12/09 06:25:57;;;;;;;66.78;32.10;;;1.60;74.70;;;;;;5016252;28;20054;-73
2020/12/09 06:28:26;;;;;;;71.10;31.40;;;1.60;75.00;;;;;;5008125;28;20057;-68
2020/12/09 06:30:55;;;;;;;84.20;33.70;;;1.60;74.80;;;;;;5008872;28;20045;-68
2020/12/09 06:33:32;;;;;;;70.43;32.38;;;1.70;75.20;;;;;;5011985;28;20041;-69
2020/12/09 06:36:23;;;;;;;71.90;32.70;;;1.70;75.20;;;;;;5013799;28;20477;-69
2020/12/09 06:39:16;;;;;;;70.68;32.00;;;1.70;75.10;;;;;;5007271;28;20590;-69
2020/12/09 06:42:08;;;;;;;69.15;32.35;;;1.80;75.40;;;;;;5013669;28;20052;-69
2020/12/09 06:44:52;;;;;;;66.95;30.90;;;1.80;75.40;;;;;;5009457;28;20053;-69
2020/12/09 06:47:19;;;;;;;70.15;32.05;;;1.90;75.50;;;;;;5015015;28;20563;-69
2020/12/09 06:49:47;;;;;;;81.90;32.58;;;1.80;74.60;;;;;;5008784;28;20042;-71
2020/12/09 06:52:35;;;;;;;74.15;33.53;;;2.00;75.70;;;;;;5015750;28;20141;-70
2020/12/09 06:55:06;;;;;;;71.40;33.53;;;1.80;74.30;;;;;;5007325;28;20054;-69
2020/12/09 06:57:37;;;;;;;70.38;31.77;;;1.90;74.60;;;;;;5009425;28;20061;-71
2020/12/09 07:00:19;;;;;;;72.65;32.05;;;1.80;74.40;;;;;;5018630;28;20041;-70
2020/12/09 07:02:48;;;;;;;77.32;34.03;;;1.90;74.80;;;;;;5016128;28;20064;-71
2020/12/09 07:05:19;;;;;;;74.85;34.25;;;2.00;75.40;;;;;;5011059;28;20049;-69
2020/12/09 07:07:48;;;;;;;75.90;33.55;;;2.00;74.20;;;;;;5016026;28;20064;-72
2020/12/09 07:10:36;;;;;;;65.75;30.60;;;2.00;73.50;;;;;;5010223;28;20041;-69
2020/12/09 07:13:09;;;;;;;71.68;33.17;;;2.00;74.00;;;;;;5003153;28;20420;-69
2020/12/09 07:15:39;;;;;;;68.60;32.67;;;2.00;74.00;;;;;;5010124;28;20084;-68
2020/12/09 07:18:06;;;;;;;66.10;30.80;;;2.00;74.40;;;;;;5012390;28;20049;-70
2020/12/09 07:20:34;;;;;;;71.03;31.42;;;2.00;74.00;;;;;;5011942;28;20041;-69
2020/12/09 07:23:01;;;;;;;81.75;33.53;;;2.00;73.80;;;;;;5012192;28;20056;-70
2020/12/09 07:25:28;;;;;;;67.60;32.63;;;2.00;74.20;;;;;;5011306;28;20066;-68
2020/12/09 07:27:56;;;;;;;72.45;32.83;;;2.00;74.00;;;;;;5012964;28;20068;-72
2020/12/09 07:30:23;;;;;;;70.75;32.28;;;2.20;75.10;;;;;;5008640;28;20045;-71
2020/12/09 07:32:52;;;;;;;66.10;31.98;;;2.20;74.60;;;;;;5012161;28;20507;-69
2020/12/09 07:35:19;;;;;;;68.25;33.17;;;2.10;73.50;;;;;;5020949;28;20045;-70
2020/12/09 07:37:50;;;;;;;73.18;33.80;;;2.20;74.30;;;;;;5009375;28;20049;-70
2020/12/09 07:40:23;;;;;;;67.28;31.05;;;2.30;74.50;;;;;;5010478;28;20488;-70
2020/12/09 07:43:01;;;;;;;70.95;32.80;;;2.10;72.60;;;;;;5012525;28;20116;-70
2020/12/09 07:45:28;;;;;;;60.80;29.98;;;2.20;74.00;;;;;;5009343;28;20056;-75
2020/12/09 07:48:00;;;;;;;67.43;31.05;;;2.20;73.50;;;;;;5013848;28;20057;-68
2020/12/09 07:50:27;;;;;;;62.63;29.90;;;2.20;73.40;;;;;;5016496;28;20042;-74
2020/12/09 07:52:54;;;;;;;67.25;30.95;;;2.20;73.80;;;;;;5011524;28;20052;-70
2020/12/09 07:55:21;;;;;;;65.45;30.58;;;2.20;73.60;;;;;;5010365;28;20050;-68
2020/12/09 07:57:48;;;;;;;71.28;31.63;;;2.10;73.70;;;;;;5018285;28;20124;-71
2020/12/09 08:00:17;;;;;;;68.40;31.92;;;2.20;74.30;;;;;;5014977;28;20052;-69
2020/12/09 08:02:45;;;;;;;71.03;33.30;;;2.20;74.00;;;;;;5018895;28;20054;-70
2020/12/09 08:05:18;;;;;;;76.15;34.47;;;2.30;74.80;;;;;;5008429;28;20054;-71
2020/12/09 08:07:50;;;;;;;70.10;31.75;;;2.30;74.90;;;;;;5012244;28;20726;-70
2020/12/09 08:10:28;;;;;;;72.53;32.40;;;2.30;74.00;;;;;;5012617;28;20552;-70
2020/12/09 08:13:03;;;;;;;68.05;30.63;;;2.30;74.20;;;;;;5013804;28;20060;-70
2020/12/09 08:15:30;;;;;;;64.95;31.13;;;2.30;74.70;;;;;;5012855;28;20173;-71
2020/12/09 08:17:58;;;;;;;68.28;31.88;;;2.20;74.40;;;;;;5011317;28;20080;-69
2020/12/09 08:20:25;;;;;;;72.78;32.78;;;2.30;74.70;;;;;;5006147;28;20423;-70
2020/12/09 08:22:54;;;;;;;70.70;32.78;;;2.30;74.50;;;;;;5016038;28;20145;-71
2020/12/09 08:25:22;;;;;;;64.40;31.02;;;2.30;74.50;;;;;;5013473;28;20061;-71
2020/12/09 08:27:49;;;;;;;69.47;31.30;;;2.40;75.70;;;;;;5012541;28;20076;-71
2020/12/09 08:30:21;;;;;;;67.82;32.45;;;2.40;74.00;;;;;;5012339;28;20056;-70
2020/12/09 08:32:59;;;;;;;72.55;31.35;;;2.40;73.90;;;;;;5009830;28;20135;-70
2020/12/09 08:35:28;;;;;;;68.88;32.05;;;2.40;74.20;;;;;;5008087;28;20049;-70
2020/12/09 08:37:55;;;;;;;64.28;31.80;;;2.40;73.70;;;;;;5009904;28;20053;-69
2020/12/09 08:40:23;;;;;;;65.20;31.02;;;2.40;73.20;;;;;;5008693;28;20042;-71
2020/12/09 08:42:51;;;;;;;59.95;30.60;;;2.40;73.40;;;;;;5009521;28;20050;-69
2020/12/09 08:45:18;;;;;;;63.90;29.90;;;2.40;73.40;;;;;;5008420;28;20507;-71
2020/12/09 08:47:45;;;;;;;58.85;29.52;;;2.40;72.80;;;;;;5012429;28;20048;-69
2020/12/09 08:50:13;;;;;;;66.53;29.63;;;2.40;72.90;;;;;;5008764;28;20049;-71
2020/12/09 08:52:41;;;;;;;61.88;30.38;;;2.40;72.40;;;;;;5012661;28;20140;-70
2020/12/09 08:55:08;;;;;;;63.72;31.30;;;2.40;72.80;;;;;;5011478;28;20045;-70
2020/12/09 08:57:35;;;;;;;69.10;31.33;;;2.30;73.40;;;;;;5011616;28;20124;-70
2020/12/09 09:00:05;;;;;;;66.25;32.10;;;2.40;72.60;;;;;;5010985;28;20512;-70
2020/12/09 09:02:32;;;;;;;63.08;31.17;;;2.40;72.70;;;;;;5011148;28;20504;-71
2020/12/09 09:04:59;;;;;;;71.00;35.10;;;2.40;72.40;;;;;;5013189;28;20041;-70
2020/12/09 09:07:26;;;;;;;70.70;33.10;;;2.40;73.00;;;;;;5012897;28;20046;-72
2020/12/09 09:09:54;;;;;;;81.30;36.72;;;2.40;72.60;;;;;;5010384;28;20503;-72
2020/12/09 09:12:21;;;;;;;70.18;33.85;;;2.40;73.10;;;;;;5011850;28;20053;-72
2020/12/09 09:14:48;;;;;;;71.50;34.03;;;2.50;73.70;;;;;;5014001;28;20050;-70
2020/12/09 09:17:14;;;;;;;67.97;32.63;;;2.40;73.20;;;;;;5017983;28;20056;-71
2020/12/09 09:19:58;;;;;;;61.35;30.08;;;2.40;72.00;;;;;;5010392;28;20049;-73
2020/12/09 09:22:25;;;;;;;61.65;29.10;;;2.30;72.80;;;;;;5011453;28;20129;-70
2020/12/09 09:24:53;;;;;;;65.03;30.85;;;2.30;72.70;;;;;;5019437;28;20046;-71
2020/12/09 09:27:20;;;;;;;60.15;29.30;;;2.40;72.90;;;;;;5019800;28;20148;-70
2020/12/09 09:29:47;;;;;;;66.32;30.67;;;2.30;72.00;;;;;;5011380;28;20053;-72
2020/12/09 09:32:15;;;;;;;62.00;31.05;;;2.40;73.70;;;;;;5013946;28;20081;-69
2020/12/09 09:34:42;;;;;;;66.97;31.30;;;2.40;73.80;;;;;;5025103;28;20136;-70
2020/12/09 09:37:09;;;;;;;65.28;31.05;;;2.40;73.10;;;;;;5018787;28;20052;-72
2020/12/09 09:39:36;;;;;;;67.90;32.75;;;2.40;73.10;;;;;;5010563;28;21282;-70
2020/12/09 09:42:04;;;;;;;61.60;30.17;;;2.40;73.40;;;;;;5011033;28;20128;-71
2020/12/09 09:44:32;;;;;;;58.92;29.77;;;2.30;72.80;;;;;;5012039;28;20128;-69
2020/12/09 09:46:59;;;;;;;63.08;30.20;;;2.30;72.80;;;;;;5017129;28;20057;-70
2020/12/09 09:49:26;;;;;;;66.40;32.45;;;2.30;72.70;;;;;;5010664;28;20064;-70
2020/12/09 09:51:53;;;;;;;69.22;30.70;;;2.30;74.20;;;;;;5007337;28;20426;-71
2020/12/09 09:54:20;;;;;;;70.47;32.38;;;2.30;74.00;;;;;;5012191;28;20054;-70
2020/12/09 09:56:49;;;;;;;62.85;30.98;;;2.40;74.50;;;;;;5009306;28;20060;-70
2020/12/09 09:59:17;;;;;;;66.85;30.55;;;2.40;74.70;;;;;;5008022;28;20049;-71
2020/12/09 10:01:44;;;;;;;59.38;29.85;;;2.20;73.20;;;;;;5008068;28;20078;-70
2020/12/09 10:04:11;;;;;;;69.22;30.70;;;2.20;72.70;;;;;;5011898;28;20050;-70
2020/12/09 10:06:38;;;;;;;62.80;30.20;;;2.30;72.50;;;;;;5008822;28;20042;-70
2020/12/09 10:09:07;;;;;;;65.70;30.00;;;2.30;73.80;;;;;;5008919;28;20051;-70
2020/12/09 10:11:36;;;;;;;63.80;29.90;;;2.30;73.90;;;;;;5007286;28;20060;-71
2020/12/09 10:14:04;;;;;;;62.15;30.58;;;2.30;73.40;;;;;;5009777;28;20136;-70
2020/12/09 10:16:32;;;;;;;67.65;31.25;;;2.30;73.20;;;;;;5011112;28;20050;-69
2020/12/09 10:18:59;;;;;;;62.35;30.98;;;2.40;73.60;;;;;;5010732;28;20056;-72
2020/12/09 10:21:28;;;;;;;60.15;30.70;;;2.40;72.60;;;;;;5011073;28;20132;-71
2020/12/09 10:23:55;;;;;;;59.00;29.02;;;2.50;72.80;;;;;;5015074;28;20046;-70
2020/12/09 10:26:29;;;;;;;59.38;28.27;;;2.30;71.90;;;;;;5008242;28;20046;-69
2020/12/09 10:29:00;;;;;;;56.78;27.83;;;2.40;73.00;;;;;;5010294;28;20050;-70
2020/12/09 10:31:36;;;;;;;59.15;28.70;;;2.40;72.10;;;;;;5006201;28;20045;-70
2020/12/09 10:34:04;;;;;;;56.25;27.73;;;2.30;73.00;;;;;;5010260;28;20055;-70
2020/12/09 10:36:31;;;;;;;60.97;29.25;;;2.50;72.40;;;;;;5010902;28;20095;-70
2020/12/09 10:38:58;;;;;;;58.70;28.70;;;2.50;73.00;;;;;;5014004;28;20056;-70
2020/12/09 10:41:25;;;;;;;58.15;29.08;;;2.50;72.10;;;;;;5010900;28;20048;-71
2020/12/09 10:43:52;;;;;;;56.05;27.15;;;2.50;72.10;;;;;;5008076;28;20064;-71
2020/12/09 10:46:19;;;;;;;63.88;29.85;;;2.50;72.30;;;;;;5011947;28;20055;-72
2020/12/09 10:48:48;;;;;;;60.90;29.00;;;2.50;72.60;;;;;;5017579;28;20052;-69
2020/12/09 10:51:15;;;;;;;64.65;30.70;;;2.60;72.70;;;;;;5009455;28;20053;-69
2020/12/09 10:53:42;;;;;;;62.85;30.70;;;2.60;72.20;;;;;;5011880;28;20052;-70
2020/12/09 10:56:09;;;;;;;58.47;29.75;;;2.60;72.80;;;;;;5011541;28;20052;-70
2020/12/09 10:58:36;;;;;;;62.90;30.00;;;2.60;72.20;;;;;;5009262;28;20050;-71
2020/12/09 11:01:03;;;;;;;59.65;29.05;;;2.60;72.20;;;;;;5005016;28;20184;-70
2020/12/09 11:03:30;;;;;;;63.40;30.42;;;2.70;71.40;;;;;;5010098;28;20079;-70
2020/12/09 11:05:57;;;;;;;61.08;28.63;;;2.70;72.20;;;;;;5009693;28;20133;-71
2020/12/09 11:08:24;;;;;;;62.85;29.25;;;2.70;71.80;;;;;;5008738;28;20522;-70
2020/12/09 11:10:52;;;;;;;61.13;28.27;;;2.70;69.80;;;;;;5005987;28;20050;-70
2020/12/09 11:13:19;;;;;;;64.28;29.85;;;2.70;69.20;;;;;;5011118;28;20518;-70
2020/12/09 11:15:45;;;;;;;57.42;28.27;;;2.50;68.20;;;;;;5010610;28;20125;-70
2020/12/09 11:18:12;;;;;;;62.33;30.02;;;2.60;69.80;;;;;;5009035;28;20050;-71
2020/12/09 11:20:39;;;;;;;67.28;29.77;;;2.70;72.30;;;;;;5009685;28;20054;-68
2020/12/09 11:23:10;;;;;;;64.53;29.55;;;2.70;70.40;;;;;;5010426;28;20048;-70
2020/12/09 11:25:37;;;;;;;70.00;30.75;;;2.70;68.80;;;;;;5009267;28;20049;-74
2020/12/09 11:28:04;;;;;;;60.53;28.92;;;2.60;69.30;;;;;;5009097;28;20136;-68
2020/12/09 11:30:31;;;;;;;68.18;31.20;;;2.70;69.30;;;;;;5010977;28;20061;-69
2020/12/09 11:32:59;;;;;;;68.07;30.95;;;2.70;70.20;;;;;;5009628;28;20045;-69
2020/12/09 11:35:26;;;;;;;75.22;32.15;;;2.80;70.00;;;;;;5009982;28;20125;-69
2020/12/09 11:37:54;;;;;;;65.65;28.10;;;2.80;70.30;;;;;;5005817;28;20057;-70
2020/12/09 11:40:25;;;;;;;69.13;29.25;;;2.80;68.30;;;;;;5006843;28;20427;-70
2020/12/09 11:42:52;;;;;;;67.35;29.25;;;2.70;68.30;;;;;;5007691;28;20136;-71
2020/12/09 11:45:19;;;;;;;68.70;28.92;;;2.80;68.50;;;;;;5011560;28;20049;-70
2020/12/09 11:47:46;;;;;;;63.97;27.42;;;2.80;65.50;;;;;;5007191;28;20062;-69
2020/12/09 11:50:13;;;;;;;68.78;28.95;;;2.80;65.90;;;;;;5005930;28;20476;-71
2020/12/09 11:52:40;;;;;;;63.47;27.45;;;2.80;67.20;;;;;;5008312;28;20045;-71
2020/12/09 11:55:07;;;;;;;64.68;26.60;;;2.70;65.80;;;;;;5009714;28;20085;-69
2020/12/09 11:57:35;;;;;;;58.30;26.33;;;2.60;65.40;;;;;;5007982;28;20491;-72
2020/12/09 12:00:02;;;;;;;69.85;28.95;;;2.80;67.60;;;;;;5005325;28;20061;-70
2020/12/09 12:02:29;;;;;;;67.43;29.38;;;2.80;65.50;;;;;;5008166;28;20458;-70
2020/12/09 12:04:56;;;;;;;65.40;27.70;;;2.80;66.10;;;;;;5010311;28;20046;-70
2020/12/09 12:07:23;;;;;;;64.38;27.20;;;2.80;65.80;;;;;;5006489;28;20073;-69
2020/12/09 12:09:50;;;;;;;59.50;27.85;;;2.80;64.30;;;;;;5006432;28;20050;-70
2020/12/09 12:12:17;;;;;;;57.13;27.27;;;2.80;64.30;;;;;;5007978;28;20053;-70
2020/12/09 12:14:45;;;;;;;66.43;28.40;;;2.80;64.30;;;;;;5010853;28;20065;-71
2020/12/09 12:17:11;;;;;;;60.55;26.98;;;2.70;66.00;;;;;;5006399;28;20050;-70
2020/12/09 12:19:39;;;;;;;63.00;25.75;;;2.70;65.70;;;;;;5006568;28;20049;-70
2020/12/09 12:22:05;;;;;;;60.00;27.40;;;2.70;63.70;;;;;;5010902;28;20679;-69
2020/12/09 12:24:33;;;;;;;62.42;28.80;;;2.70;66.00;;;;;;5012456;28;20049;-71
2020/12/09 12:27:00;;;;;;;55.03;25.02;;;2.70;66.10;;;;;;5010676;28;20144;-69
2020/12/09 12:29:27;;;;;;;59.00;26.60;;;2.70;64.70;;;;;;5008922;28;20083;-70
2020/12/09 12:31:57;;;;;;;59.15;26.67;;;2.60;66.80;;;;;;5009612;28;20134;-69
2020/12/09 12:34:24;;;;;;;59.05;25.98;;;2.80;66.50;;;;;;5012704;28;20065;-69
2020/12/09 12:36:51;;;;;;;63.28;25.92;;;2.80;64.20;;;;;;5013466;28;20052;-70
2020/12/09 12:39:18;;;;;;;62.28;28.50;;;2.80;64.60;;;;;;5010400;28;20057;-70
2020/12/09 12:41:45;;;;;;;63.30;28.33;;;2.70;64.20;;;;;;5012423;28;20427;-71
2020/12/09 12:44:12;;;;;;;69.88;27.92;;;2.80;64.50;;;;;;5013201;28;20054;-70
2020/12/09 12:46:39;;;;;;;66.97;27.23;;;2.80;64.30;;;;;;5010065;28;20518;-69
2020/12/09 12:49:08;;;;;;;62.45;25.90;;;2.70;64.30;;;;;;5012985;28;20081;-69